createdAt,value
2018-12-18T00:00:43.785Z,100.00
2018-12-18T00:03:12.185Z,100.00
2018-12-18T00:05:40.462Z,100.00
2018-12-18T00:08:08.729Z,100.00
2018-12-18T00:10:42.226Z,100.00
2018-12-18T00:13:10.725Z,100.00
2018-12-18T00:15:39.176Z,100.00
2018-12-18T00:18:07.468Z,100.00
2018-12-18T00:20:36.149Z,100.00
2018-12-18T00:23:04.471Z,100.00
2018-12-18T00:25:33.097Z,99.66
2018-12-18T00:28:01.354Z,99.49
2018-12-18T00:30:29.995Z,99.13
2018-12-18T00:32:58.670Z,99.58
2018-12-18T00:35:27.037Z,98.80
2018-12-18T00:37:55.620Z,98.24
2018-12-18T00:40:24.641Z,98.31
2018-12-18T00:42:52.902Z,97.52
2018-12-18T00:45:21.502Z,97.39
2018-12-18T00:47:49.944Z,96.56
2018-12-18T00:50:18.457Z,98.15
2018-12-18T00:52:46.901Z,97.08
2018-12-18T00:55:15.193Z,97.70
2018-12-18T00:57:43.877Z,97.55
2018-12-18T01:00:12.390Z,97.94
2018-12-18T01:02:40.837Z,97.62
2018-12-18T01:05:09.460Z,98.29
2018-12-18T01:07:37.920Z,97.10
2018-12-18T01:10:07.041Z,97.14
2018-12-18T01:12:35.393Z,97.74
2018-12-18T01:15:03.996Z,97.41
2018-12-18T01:17:32.637Z,97.68
2018-12-18T01:20:01.217Z,98.12
2018-12-18T01:22:29.717Z,97.61
2018-12-18T01:24:58.001Z,98.51
2018-12-18T01:27:26.677Z,98.38
2018-12-18T01:29:55.176Z,98.37
2018-12-18T01:32:23.642Z,98.77
2018-12-18T01:34:52.152Z,99.60
2018-12-18T01:37:20.600Z,98.75
2018-12-18T01:39:49.106Z,99.56
2018-12-18T01:42:17.397Z,99.97
2018-12-18T01:44:46.082Z,100.00
2018-12-18T01:47:14.333Z,100.00
2018-12-18T01:49:43.021Z,100.00
2018-12-18T01:52:11.316Z,99.86
2018-12-18T01:54:40.232Z,99.45
2018-12-18T01:57:08.969Z,99.22
2018-12-18T01:59:37.461Z,98.93
2018-12-18T02:02:05.873Z,99.50
2018-12-18T02:04:34.426Z,99.11
2018-12-18T02:07:02.710Z,99.74
2018-12-18T02:09:33.009Z,100.00
2018-12-18T02:12:01.309Z,99.79
2018-12-18T02:14:29.577Z,100.00
2018-12-18T02:16:57.985Z,100.00
2018-12-18T02:19:26.318Z,100.00
2018-12-18T02:21:54.827Z,99.77
2018-12-18T02:24:23.801Z,99.37
2018-12-18T02:26:52.077Z,99.50
2018-12-18T02:29:20.777Z,99.04
2018-12-18T02:31:49.281Z,99.57
2018-12-18T02:34:18.255Z,99.58
2018-12-18T02:36:46.561Z,98.87
2018-12-18T02:39:15.779Z,98.31
2018-12-18T02:41:44.337Z,98.79
2018-12-18T02:44:12.672Z,98.11
2018-12-18T02:46:41.205Z,98.42
2018-12-18T02:49:09.646Z,98.23
2018-12-18T02:51:38.158Z,96.90
2018-12-18T02:54:06.609Z,96.80
2018-12-18T02:56:35.095Z,96.34
2018-12-18T02:59:03.714Z,97.25
2018-12-18T03:01:32.001Z,97.09
2018-12-18T03:04:00.564Z,97.76
2018-12-18T03:06:29.049Z,97.90
2018-12-18T03:08:57.517Z,96.91
2018-12-18T03:11:25.786Z,97.17
2018-12-18T03:13:54.168Z,96.86
2018-12-18T03:16:22.438Z,97.86
2018-12-18T03:18:50.930Z,97.14
2018-12-18T03:21:19.832Z,97.50
2018-12-18T03:23:48.431Z,97.36
2018-12-18T03:26:16.882Z,97.03
2018-12-18T03:28:45.409Z,97.75
2018-12-18T03:31:13.700Z,97.31
2018-12-18T03:33:42.345Z,97.06
2018-12-18T03:36:10.630Z,96.55
2018-12-18T03:38:39.436Z,94.15
2018-12-18T03:41:07.706Z,94.35
2018-12-18T03:43:36.280Z,94.88
2018-12-18T03:46:05.042Z,94.17
2018-12-18T03:48:33.739Z,95.50
2018-12-18T03:51:02.338Z,95.11
2018-12-18T03:53:30.617Z,96.15
2018-12-18T03:55:58.906Z,96.65
2018-12-18T03:58:27.201Z,96.08
2018-12-18T04:00:55.466Z,95.73
2018-12-18T04:03:24.105Z,96.22
2018-12-18T04:05:53.117Z,95.45
2018-12-18T04:08:21.569Z,95.11
2018-12-18T04:10:50.201Z,94.63
2018-12-18T04:13:18.547Z,93.40
2018-12-18T04:15:47.143Z,93.91
2018-12-18T04:18:15.405Z,92.85
2018-12-18T04:20:44.009Z,92.76
2018-12-18T04:23:12.461Z,93.94
2018-12-18T04:25:40.961Z,93.42
2018-12-18T04:28:09.433Z,93.42
2018-12-18T04:30:37.933Z,93.88
2018-12-18T04:33:06.194Z,93.99
2018-12-18T04:35:34.477Z,93.79
2018-12-18T04:38:02.843Z,93.83
2018-12-18T04:40:31.344Z,93.48
2018-12-18T04:42:59.621Z,93.42
2018-12-18T04:45:27.916Z,92.56
2018-12-18T04:47:56.250Z,92.63
2018-12-18T04:50:24.561Z,92.39
2018-12-18T04:52:52.833Z,92.59
2018-12-18T04:55:21.225Z,92.38
2018-12-18T04:57:49.670Z,91.92
2018-12-18T05:00:18.274Z,92.34
2018-12-18T05:02:46.572Z,93.10
2018-12-18T05:05:15.636Z,92.77
2018-12-18T05:07:43.904Z,94.15
2018-12-18T05:10:12.166Z,93.57
2018-12-18T05:12:40.454Z,93.39
2018-12-18T05:15:08.849Z,93.78
2018-12-18T05:17:37.150Z,93.55
2018-12-18T05:20:06.065Z,93.92
2018-12-18T05:22:35.022Z,94.01
2018-12-18T05:25:03.613Z,93.50
2018-12-18T05:27:31.994Z,94.10
2018-12-18T05:30:00.677Z,94.22
2018-12-18T05:32:29.461Z,94.40
2018-12-18T05:34:57.921Z,93.87
2018-12-18T05:37:26.432Z,94.10
2018-12-18T05:39:54.713Z,94.59
2018-12-18T05:42:23.390Z,94.96
2018-12-18T05:44:51.849Z,94.96
2018-12-18T05:47:20.361Z,95.17
2018-12-18T05:49:48.862Z,95.69
2018-12-18T05:52:17.313Z,95.16
2018-12-18T05:54:45.598Z,95.79
2018-12-18T05:57:13.978Z,95.29
2018-12-18T05:59:42.670Z,95.72
2018-12-18T06:02:11.594Z,95.07
2018-12-18T06:04:40.311Z,96.58
2018-12-18T06:07:08.735Z,96.46
2018-12-18T06:09:37.013Z,95.89
2018-12-18T06:12:05.677Z,96.53
2018-12-18T06:14:34.182Z,97.09
2018-12-18T06:17:03.349Z,97.07
2018-12-18T06:19:31.657Z,97.89
2018-12-18T06:22:00.123Z,98.49
2018-12-18T06:24:29.117Z,98.50
2018-12-18T06:26:57.590Z,99.81
2018-12-18T06:29:25.862Z,99.52
2018-12-18T06:31:55.438Z,99.26
2018-12-18T06:34:24.037Z,99.83
2018-12-18T06:36:52.528Z,99.51
2018-12-18T06:39:21.037Z,99.34
2018-12-18T06:41:49.305Z,99.49
2018-12-18T06:44:17.998Z,99.56
2018-12-18T06:46:46.285Z,99.22
2018-12-18T06:49:14.957Z,99.42
2018-12-18T06:51:43.429Z,100.00
2018-12-18T06:54:11.921Z,100.00
2018-12-18T06:56:40.397Z,100.00
2018-12-18T06:59:08.873Z,100.00
2018-12-18T07:01:37.345Z,100.00
2018-12-18T07:04:05.857Z,100.00
2018-12-18T07:06:34.445Z,100.00
2018-12-18T07:09:02.961Z,100.00
2018-12-18T07:11:31.250Z,100.00
2018-12-18T07:13:59.545Z,100.00
2018-12-18T07:16:28.245Z,100.00
2018-12-18T07:18:56.748Z,100.00
2018-12-18T07:21:25.049Z,100.00
2018-12-18T07:23:53.703Z,100.00
2018-12-18T07:26:22.186Z,100.00
2018-12-18T07:28:50.470Z,100.00
2018-12-18T07:31:19.137Z,100.00
2018-12-18T07:33:47.674Z,100.00
2018-12-18T07:36:16.621Z,100.00
2018-12-18T07:38:45.085Z,100.00
2018-12-18T07:41:13.714Z,100.00
2018-12-18T07:43:42.069Z,100.00
2018-12-18T07:46:10.349Z,99.35
2018-12-18T07:48:38.612Z,98.19
2018-12-18T07:51:06.889Z,96.26
2018-12-18T07:53:35.431Z,96.53
2018-12-18T07:56:03.941Z,95.62
2018-12-18T07:58:32.203Z,95.18
2018-12-18T08:01:00.573Z,95.77
2018-12-18T08:03:28.849Z,95.83
2018-12-18T08:05:57.134Z,95.17
2018-12-18T08:08:25.843Z,94.47
2018-12-18T08:10:54.354Z,94.99
2018-12-18T08:13:23.456Z,95.22
2018-12-18T08:15:51.730Z,94.99
2018-12-18T08:18:19.985Z,93.28
2018-12-18T08:20:48.272Z,92.98
2018-12-18T08:23:16.733Z,92.84
2018-12-18T08:25:45.244Z,90.38
2018-12-18T08:28:13.526Z,88.85
2018-12-18T08:30:41.821Z,88.84
2018-12-18T08:33:10.081Z,84.91
2018-12-18T08:35:38.646Z,81.20
2018-12-18T08:38:07.122Z,79.08
2018-12-18T08:40:35.398Z,75.17
2018-12-18T08:43:04.085Z,76.84
2018-12-18T08:45:32.589Z,76.83
2018-12-18T08:48:00.861Z,78.15
2018-12-18T08:50:29.138Z,81.82
2018-12-18T08:52:57.481Z,83.78
2018-12-18T08:55:26.009Z,88.04
2018-12-18T08:57:54.265Z,87.84
2018-12-18T09:00:22.950Z,88.36
2018-12-18T09:02:51.241Z,89.46
2018-12-18T09:05:19.996Z,90.80
2018-12-18T09:07:48.266Z,92.52
2018-12-18T09:10:16.625Z,92.98
2018-12-18T09:12:44.901Z,92.04
2018-12-18T09:15:18.322Z,93.08
2018-12-18T09:17:47.413Z,94.78
2018-12-18T09:20:15.857Z,95.92
2018-12-18T09:22:44.440Z,95.68
2018-12-18T09:25:12.717Z,96.84
2018-12-18T09:27:41.378Z,97.39
2018-12-18T09:30:10.980Z,97.18
2018-12-18T09:32:39.801Z,97.51
2018-12-18T09:35:08.880Z,96.21
2018-12-18T09:37:37.164Z,96.13
2018-12-18T09:40:07.459Z,97.44
2018-12-18T09:42:40.925Z,96.42
2018-12-18T09:45:09.553Z,96.00
2018-12-18T09:47:38.513Z,97.43
2018-12-18T09:50:08.305Z,97.08
2018-12-18T09:52:36.949Z,95.77
2018-12-18T09:55:05.408Z,97.46
2018-12-18T09:57:39.684Z,96.59
2018-12-18T10:00:08.642Z,95.80
2018-12-18T10:02:36.928Z,96.79
2018-12-18T10:05:06.117Z,95.72
2018-12-18T10:07:34.490Z,96.08
2018-12-18T10:10:02.962Z,95.54
2018-12-18T10:12:36.665Z,95.25
2018-12-18T10:15:05.677Z,95.04
2018-12-18T10:17:33.945Z,95.50
2018-12-18T10:20:02.521Z,95.44
2018-12-18T10:22:30.785Z,94.38
2018-12-18T10:24:59.509Z,94.77
2018-12-18T10:27:27.961Z,93.37
2018-12-18T10:29:56.460Z,94.64
2018-12-18T10:32:24.939Z,92.92
2018-12-18T10:34:53.222Z,91.28
2018-12-18T10:37:21.877Z,91.98
2018-12-18T10:39:50.165Z,91.56
2018-12-18T10:42:18.853Z,90.56
2018-12-18T10:44:47.357Z,91.61
2018-12-18T10:47:15.817Z,91.44
2018-12-18T10:49:44.098Z,90.31
2018-12-18T10:52:12.358Z,90.79
2018-12-18T10:54:40.761Z,90.75
2018-12-18T10:57:09.229Z,90.61
2018-12-18T10:59:37.746Z,89.69
2018-12-18T11:02:06.213Z,88.93
2018-12-18T11:04:35.037Z,90.12
2018-12-18T11:07:03.310Z,89.09
2018-12-18T11:09:31.588Z,88.72
2018-12-18T11:11:59.873Z,89.29
2018-12-18T11:14:28.622Z,88.60
2018-12-18T11:16:57.597Z,86.50
2018-12-18T11:19:26.028Z,86.01
2018-12-18T11:21:54.561Z,87.25
2018-12-18T11:24:23.182Z,86.50
2018-12-18T11:26:52.669Z,86.62
2018-12-18T11:29:21.565Z,86.07
2018-12-18T11:31:50.030Z,84.26
2018-12-18T11:34:18.689Z,82.90
2018-12-18T11:36:46.993Z,79.90
2018-12-18T11:39:15.273Z,78.23
2018-12-18T11:41:43.526Z,78.75
2018-12-18T11:44:11.918Z,77.85
2018-12-18T11:46:40.429Z,78.67
2018-12-18T11:49:08.694Z,80.60
2018-12-18T11:51:37.501Z,82.96
2018-12-18T11:54:06.874Z,81.68
2018-12-18T11:56:35.517Z,80.59
2018-12-18T11:59:03.851Z,82.41
2018-12-18T12:01:32.133Z,75.43
2018-12-18T12:04:00.532Z,69.87
2018-12-18T12:06:29.322Z,68.21
2018-12-18T12:08:57.754Z,61.24
2018-12-18T12:11:26.256Z,61.75
2018-12-18T12:13:54.509Z,59.79
2018-12-18T12:16:22.789Z,60.90
2018-12-18T12:18:51.173Z,56.69
2018-12-18T12:21:19.674Z,56.82
2018-12-18T12:23:48.269Z,53.40
2018-12-18T12:26:21.878Z,52.78
2018-12-18T12:28:50.148Z,55.07
2018-12-18T12:31:18.721Z,53.21
2018-12-18T12:33:46.990Z,53.20
2018-12-18T12:36:15.813Z,55.26
2018-12-18T12:38:44.154Z,54.19
2018-12-18T12:41:12.533Z,53.90
2018-12-18T12:43:41.113Z,55.90
2018-12-18T12:46:09.645Z,59.02
2018-12-18T12:48:43.385Z,59.01
2018-12-18T12:51:11.671Z,58.50
2018-12-18T12:53:40.167Z,59.24
2018-12-18T12:56:08.691Z,58.41
2018-12-18T12:58:36.965Z,55.87
2018-12-18T13:01:05.625Z,55.99
2018-12-18T13:03:34.101Z,61.77
2018-12-18T13:06:02.594Z,56.66
2018-12-18T13:08:31.046Z,54.12
2018-12-18T13:10:59.563Z,57.02
2018-12-18T13:13:28.011Z,58.61
2018-12-18T13:15:56.510Z,59.58
2018-12-18T13:18:24.965Z,61.14
2018-12-18T13:20:53.274Z,64.26
2018-12-18T13:23:21.966Z,64.55
2018-12-18T13:25:50.223Z,63.26
2018-12-18T13:28:18.490Z,64.79
2018-12-18T13:30:46.897Z,63.56
2018-12-18T13:33:15.373Z,63.32
2018-12-18T13:35:43.840Z,62.56
2018-12-18T13:38:12.437Z,59.74
2018-12-18T13:40:40.932Z,59.34
2018-12-18T13:43:09.297Z,56.46
2018-12-18T13:45:37.694Z,57.20
2018-12-18T13:48:06.005Z,57.71
2018-12-18T13:50:34.797Z,58.57
2018-12-18T13:53:03.224Z,60.17
2018-12-18T13:55:36.666Z,59.82
2018-12-18T13:58:01.786Z,62.81
2018-12-18T14:00:30.192Z,67.31
2018-12-18T14:02:58.689Z,70.12
2018-12-18T14:05:27.157Z,71.05
2018-12-18T14:07:55.646Z,71.97
2018-12-18T14:10:24.237Z,70.66
2018-12-18T14:12:57.811Z,71.08
2018-12-18T14:15:26.713Z,69.63
2018-12-18T14:17:54.980Z,70.54
2018-12-18T14:20:23.357Z,70.38
2018-12-18T14:22:52.609Z,69.52
2018-12-18T14:25:20.870Z,66.28
2018-12-18T14:27:49.593Z,67.63
2018-12-18T14:30:18.121Z,67.28
2018-12-18T14:32:46.399Z,68.74
2018-12-18T14:35:15.085Z,72.68
2018-12-18T14:37:43.593Z,77.06
2018-12-18T14:40:12.043Z,79.50
2018-12-18T14:42:40.305Z,80.76
2018-12-18T14:45:09.140Z,80.73
2018-12-18T14:47:37.526Z,82.45
2018-12-18T14:50:07.601Z,83.23
2018-12-18T14:52:36.017Z,83.25
2018-12-18T14:55:04.491Z,84.85
2018-12-18T14:57:32.751Z,85.49
2018-12-18T15:00:01.367Z,85.26
2018-12-18T15:02:29.917Z,86.95
2018-12-18T15:04:58.420Z,87.41
2018-12-18T15:07:26.691Z,88.58
2018-12-18T15:09:55.385Z,89.26
2018-12-18T15:12:23.832Z,89.78
2018-12-18T15:14:52.110Z,90.54
2018-12-18T15:17:20.802Z,90.94
2018-12-18T15:19:49.297Z,91.28
2018-12-18T15:22:17.777Z,90.72
2018-12-18T15:24:46.273Z,92.42
2018-12-18T15:27:14.558Z,92.82
2018-12-18T15:29:43.237Z,93.10
2018-12-18T15:32:11.501Z,92.47
2018-12-18T15:34:39.797Z,93.86
2018-12-18T15:37:09.794Z,94.35
2018-12-18T15:39:38.693Z,94.67
2018-12-18T15:42:07.158Z,93.96
2018-12-18T15:44:35.666Z,95.01
2018-12-18T15:47:04.128Z,95.30
2018-12-18T15:49:32.421Z,94.94
2018-12-18T15:52:01.094Z,95.08
2018-12-18T15:54:29.379Z,95.93
2018-12-18T15:56:57.637Z,95.52
2018-12-18T15:59:26.121Z,95.33
2018-12-18T16:01:54.393Z,96.32
2018-12-18T16:04:22.643Z,95.65
2018-12-18T16:06:50.939Z,96.44
2018-12-18T16:09:19.186Z,95.94
2018-12-18T16:11:47.457Z,96.66
2018-12-18T16:14:15.730Z,96.58
2018-12-18T16:16:44.009Z,95.75
2018-12-18T16:19:12.408Z,95.54
2018-12-18T16:21:41.441Z,96.77
2018-12-18T16:24:09.829Z,97.11
2018-12-18T16:26:38.321Z,95.83
2018-12-18T16:29:06.774Z,95.50
2018-12-18T16:31:37.224Z,96.99
2018-12-18T16:34:07.678Z,97.35
2018-12-18T16:36:36.569Z,97.06
2018-12-18T16:39:07.572Z,97.05
2018-12-18T16:41:35.869Z,97.37
2018-12-18T16:44:04.242Z,97.96
2018-12-18T16:46:32.825Z,98.27
2018-12-18T16:49:01.098Z,97.82
2018-12-18T16:51:29.382Z,97.92
2018-12-18T16:53:58.141Z,98.11
2018-12-18T16:56:26.606Z,98.24
2018-12-18T16:58:55.227Z,97.50
2018-12-18T17:01:23.513Z,98.29
2018-12-18T17:03:52.201Z,98.43
2018-12-18T17:06:20.688Z,99.07
2018-12-18T17:08:48.962Z,98.07
2018-12-18T17:11:17.374Z,98.72
2018-12-18T17:13:46.053Z,97.40
2018-12-18T17:16:14.618Z,96.81
2018-12-18T17:18:42.933Z,97.22
2018-12-18T17:21:11.241Z,96.68
2018-12-18T17:23:39.531Z,96.01
2018-12-18T17:26:08.306Z,97.09
2018-12-18T17:28:37.013Z,97.62
2018-12-18T17:31:05.374Z,96.73
2018-12-18T17:33:33.738Z,96.89
2018-12-18T17:36:02.563Z,96.40
2018-12-18T17:38:30.861Z,96.83
2018-12-18T17:40:59.133Z,96.89
2018-12-18T17:43:28.033Z,97.11
2018-12-18T17:45:56.378Z,97.26
2018-12-18T17:48:24.889Z,97.45
2018-12-18T17:50:53.161Z,97.21
2018-12-18T17:53:21.446Z,96.16
2018-12-18T17:55:49.785Z,96.20
2018-12-18T17:58:18.070Z,95.58
2018-12-18T18:00:46.749Z,95.46
2018-12-18T18:03:15.029Z,95.38
2018-12-18T18:05:43.313Z,95.74
2018-12-18T18:08:11.726Z,95.70
2018-12-18T18:10:40.166Z,94.71
2018-12-18T18:13:08.462Z,94.57
2018-12-18T18:15:36.841Z,94.07
2018-12-18T18:18:05.747Z,94.33
2018-12-18T18:20:34.601Z,94.96
2018-12-18T18:23:02.894Z,95.26
2018-12-18T18:25:32.606Z,95.74
2018-12-18T18:28:01.110Z,95.03
2018-12-18T18:30:29.555Z,94.98
2018-12-18T18:32:57.835Z,93.78
2018-12-18T18:35:26.096Z,94.18
2018-12-18T18:37:54.362Z,94.25
2018-12-18T18:40:22.669Z,93.95
2018-12-18T18:42:50.942Z,93.94
2018-12-18T18:45:19.470Z,94.88
2018-12-18T18:47:47.908Z,94.70
2018-12-18T18:50:16.424Z,94.59
2018-12-18T18:52:44.697Z,94.73
2018-12-18T18:55:13.732Z,94.86
2018-12-18T18:57:42.437Z,93.69
2018-12-18T19:00:11.026Z,93.65
2018-12-18T19:02:39.287Z,94.46
2018-12-18T19:05:08.250Z,94.77
2018-12-18T19:07:36.795Z,94.25
2018-12-18T19:10:06.761Z,94.20
2018-12-18T19:12:35.038Z,94.44
2018-12-18T19:15:03.509Z,94.77
2018-12-18T19:17:32.210Z,94.04
2018-12-18T19:20:00.745Z,95.13
2018-12-18T19:22:29.033Z,94.66
2018-12-18T19:24:57.334Z,94.44
2018-12-18T19:27:25.998Z,95.37
2018-12-18T19:29:54.285Z,94.79
2018-12-18T19:32:22.639Z,95.55
2018-12-18T19:34:51.134Z,95.63
2018-12-18T19:37:19.800Z,95.12
2018-12-18T19:39:48.726Z,95.88
2018-12-18T19:42:17.681Z,94.73
2018-12-18T19:44:46.577Z,93.91
2018-12-18T19:47:14.942Z,94.25
2018-12-18T19:49:43.562Z,93.96
2018-12-18T19:52:12.026Z,93.45
2018-12-18T19:54:40.526Z,93.70
2018-12-18T19:57:09.114Z,94.17
2018-12-18T19:59:37.382Z,94.33
2018-12-18T20:02:07.001Z,94.08
2018-12-18T20:04:35.466Z,94.35
2018-12-18T20:07:05.085Z,95.14
2018-12-18T20:09:36.347Z,94.63
2018-12-18T20:12:05.967Z,94.94
2018-12-18T20:14:35.762Z,95.37
2018-12-18T20:17:04.587Z,94.80
2018-12-18T20:19:32.956Z,95.21
2018-12-18T20:22:01.271Z,94.72
2018-12-18T20:24:29.971Z,95.21
2018-12-18T20:26:59.265Z,94.79
2018-12-18T20:29:29.041Z,94.09
2018-12-18T20:31:58.178Z,93.39
2018-12-18T20:34:27.905Z,93.62
2018-12-18T20:36:56.740Z,94.15
2018-12-18T20:39:25.899Z,93.65
2018-12-18T20:41:54.378Z,92.49
2018-12-18T20:44:22.732Z,92.44
2018-12-18T20:46:51.345Z,92.18
2018-12-18T20:49:19.909Z,92.16
2018-12-18T20:51:48.405Z,93.17
2018-12-18T20:54:18.593Z,92.03
2018-12-18T20:56:46.902Z,91.99
2018-12-18T20:59:15.373Z,93.10
2018-12-18T21:01:43.879Z,92.20
2018-12-18T21:04:12.222Z,92.17
2018-12-18T21:06:40.869Z,92.84
2018-12-18T21:09:10.362Z,92.61
2018-12-18T21:11:38.765Z,92.42
2018-12-18T21:14:07.177Z,91.90
2018-12-18T21:16:35.595Z,91.88
2018-12-18T21:19:04.234Z,91.71
2018-12-18T21:21:32.664Z,91.25
2018-12-18T21:24:01.059Z,91.26
2018-12-18T21:26:29.437Z,90.85
2018-12-18T21:28:57.846Z,91.46
2018-12-18T21:31:26.234Z,91.68
2018-12-18T21:33:54.641Z,90.80
2018-12-18T21:36:23.162Z,91.37
2018-12-18T21:38:51.566Z,90.85
2018-12-18T21:41:19.957Z,89.73
2018-12-18T21:43:48.470Z,90.46
2018-12-18T21:46:17.069Z,89.66
2018-12-18T21:48:45.566Z,89.15
2018-12-18T21:51:13.946Z,89.78
2018-12-18T21:53:42.537Z,89.43
2018-12-18T21:56:10.923Z,89.61
2018-12-18T21:58:39.506Z,89.08
2018-12-18T22:01:07.962Z,87.79
2018-12-18T22:03:36.469Z,88.07
2018-12-18T22:06:04.927Z,87.29
2018-12-18T22:08:36.815Z,87.55
2018-12-18T22:11:03.969Z,87.15
2018-12-18T22:13:32.373Z,87.41
2018-12-18T22:16:00.913Z,87.43
2018-12-18T22:18:29.398Z,87.70
2018-12-18T22:20:57.869Z,87.51
2018-12-18T22:23:26.274Z,87.13
2018-12-18T22:25:54.598Z,87.66
2018-12-18T22:28:22.893Z,87.04
2018-12-18T22:30:51.249Z,87.45
2018-12-18T22:33:19.741Z,87.77
2018-12-18T22:35:49.241Z,88.41
2018-12-18T22:38:17.729Z,87.87
2018-12-18T22:40:46.386Z,87.91
2018-12-18T22:43:16.215Z,88.54
2018-12-18T22:45:44.725Z,88.08
2018-12-18T22:48:13.205Z,88.57
2018-12-18T22:50:41.481Z,88.33
2018-12-18T22:53:09.762Z,88.09
2018-12-18T22:55:44.672Z,88.21
2018-12-18T22:58:08.415Z,88.16
2018-12-18T23:00:42.885Z,88.50
2018-12-18T23:03:12.057Z,88.32
2018-12-18T23:05:40.364Z,89.59
2018-12-18T23:08:08.709Z,88.70
2018-12-18T23:10:37.214Z,89.41
2018-12-18T23:13:05.673Z,88.09
2018-12-18T23:15:34.185Z,87.91
2018-12-18T23:18:02.442Z,89.08
2018-12-18T23:20:30.761Z,88.81
2018-12-18T23:22:59.045Z,87.16
2018-12-18T23:25:28.114Z,86.85
2018-12-18T23:27:56.567Z,87.32
2018-12-18T23:30:25.069Z,86.80
2018-12-18T23:32:53.529Z,88.04
2018-12-18T23:35:22.031Z,87.62
2018-12-18T23:37:50.494Z,87.32
2018-12-18T23:40:18.976Z,87.50
2018-12-18T23:42:47.293Z,88.29
2018-12-18T23:45:15.909Z,87.35
2018-12-18T23:47:44.512Z,87.36
2018-12-18T23:50:12.893Z,86.98
2018-12-18T23:52:41.401Z,85.81
2018-12-18T23:55:09.866Z,85.41
2018-12-18T23:57:38.263Z,84.79
